Huvudsida
METAR-TAF:

METAR-TAF

Flygplatser :

Curaçaos internationella flygplats

Curaçao, Nederländska Antillerna

latitud: 12-12N, longitud: 068-58W, höjd: 9 m

Aktuellt väderrapport

Denna rapport gjordes för 54 minuter sedan, klockan 07:00 UTC
Vind 13 kt från ost
Temperatur 27°C
Fuktighet 79%
Tryck 1012 hPa
Sikt 10 km eller mer

METAR: TNCC 220700Z AUTO 10013KT 9999 NCD 27/23 Q1012

Tid: 03:54 (07:54 UTC)

Väderprognos

Denna rapport gjordes för 3 timmar och 54 minuter sedan, klockan 04:00 UTC
Prognos gäller från 22 kl. 06 UTC till 23 kl. 06 UTC
Vind 10 kt från ost
Sikt 10 km eller mer
Spridda moln på en höjd av 1800 ft
Temporärt
från 22 kl. 06 UTC till 22 kl. 12 UTC
Brutna moln på en höjd av 1400 ft

TAF: TNCC 220400Z 2206/2306 10010KT 9999 SCT018 TEMPO 2206/2212 BKN014

Aktuella väderrapporter och prognoser från 4000 flygplatser (METAR- och TAF-rapporter).

De tillgängliga stationerna syns som gula och röda prickar på kartan.

För musen över prickarna för att se namnen på stationerna.

Klicka sedan för att få väderrapporter och prognoser.

För att ändra kartan: Klicka på de gröna knapparna med ett svart kors på för att zooma in; den gröna knappen med ett streck på för att zooma ut; eller på de gröna pilarna för angränsande kartor.


METAR-TAF: